Time;durP1;ratioP1;P1;durP2;ratioP2;P2;SDS_P1;SDS_P2;PMS_P1;PMS_P2;Temp;Humidity;BMP_temperature;BMP_pressure;BME280_temperature;BME280_humidity;BME280_pressure;Samples;Min_cycle;Max_cycle;Signal;HPM_P1;HPM_P2
2024/02/06 00:01:01;0.00;0.00;0.62;0.00;0.00;0.62;3.90;2.90;;;22.20;26.10;;;;;;2258496;61;20438;-69
2024/02/06 00:03:46;0.00;0.00;0.62;0.00;0.00;0.62;3.57;3.10;;;22.20;26.10;;;;;;2265115;61;20401;-70
2024/02/06 00:06:30;0.00;0.00;0.62;0.00;0.00;0.62;3.90;2.53;;;22.30;26.20;;;;;;2265646;61;20902;-69
2024/02/06 00:09:15;0.00;0.00;0.62;0.00;0.00;0.62;3.20;2.30;;;22.20;26.10;;;;;;2261990;61;20940;-69
2024/02/06 00:12:01;0.00;0.00;0.62;0.00;0.00;0.62;3.70;2.80;;;22.20;26.10;;;;;;2265391;61;20388;-70
2024/02/06 00:14:45;0.00;0.00;0.62;0.00;0.00;0.62;6.23;2.40;;;22.20;26.10;;;;;;2265220;61;20403;-70
2024/02/06 00:17:30;0.00;0.00;0.62;0.00;0.00;0.62;2.77;2.50;;;22.20;26.10;;;;;;2261339;61;20436;-70
2024/02/06 00:20:19;0.00;0.00;0.62;0.00;0.00;0.62;3.40;2.40;;;22.20;26.10;;;;;;2261624;61;20907;-69
2024/02/06 00:23:04;0.00;0.00;0.62;0.00;0.00;0.62;3.80;2.60;;;22.20;26.10;;;;;;2258431;61;20950;-69
2024/02/06 00:25:48;0.00;0.00;0.62;0.00;0.00;0.62;3.33;2.70;;;22.30;26.20;;;;;;2265593;61;20405;-69
2024/02/06 00:28:35;0.00;0.00;0.62;0.00;0.00;0.62;3.20;2.37;;;22.30;26.10;;;;;;2265601;61;20671;-68
2024/02/06 00:31:19;0.00;0.00;0.62;0.00;0.00;0.62;4.43;2.50;;;22.20;26.10;;;;;;2261735;61;20395;-72
2024/02/06 00:34:04;0.00;0.00;0.62;0.00;0.00;0.62;5.00;2.60;;;22.20;26.10;;;;;;2262058;61;20394;-70
2024/02/06 00:36:49;0.00;0.00;0.62;0.00;0.00;0.62;5.90;2.50;;;22.20;26.10;;;;;;2265690;61;20372;-68
2024/02/06 00:39:33;0.00;0.00;0.62;0.00;0.00;0.62;3.17;2.37;;;22.20;26.10;;;;;;2264882;61;20419;-69
2024/02/06 00:42:18;0.00;0.00;0.62;0.00;0.00;0.62;2.30;1.93;;;22.20;26.10;;;;;;2262071;61;20402;-70
2024/02/06 00:45:06;0.00;0.00;0.62;0.00;0.00;0.62;3.43;2.13;;;22.20;26.10;;;;;;2264899;61;20356;-69
2024/02/06 00:47:52;0.00;0.00;0.62;0.00;0.00;0.62;2.40;2.03;;;22.20;26.10;;;;;;2264958;61;20772;-69
2024/02/06 00:50:37;0.00;0.00;0.62;0.00;0.00;0.62;2.57;1.90;;;22.20;26.10;;;;;;2262242;61;20372;-70
2024/02/06 00:53:21;0.00;0.00;0.62;0.00;0.00;0.62;2.70;1.90;;;22.20;26.10;;;;;;2265071;61;20373;-70
2024/02/06 00:56:07;0.00;0.00;0.62;0.00;0.00;0.62;2.87;2.03;;;22.20;26.10;;;;;;2265434;61;20775;-71
2024/02/06 00:58:52;0.00;0.00;0.62;0.00;0.00;0.62;3.63;2.30;;;22.20;26.10;;;;;;2262404;61;20376;-68
2024/02/06 01:01:38;0.00;0.00;0.62;0.00;0.00;0.62;2.93;1.80;;;22.20;26.10;;;;;;2264970;61;20383;-70
2024/02/06 01:04:22;0.00;0.00;0.62;0.00;0.00;0.62;3.23;2.00;;;22.20;26.10;;;;;;2265173;61;20364;-71
2024/02/06 01:07:07;0.00;0.00;0.62;0.00;0.00;0.62;5.03;2.67;;;22.20;26.10;;;;;;2265206;61;20467;-67
2024/02/06 01:09:52;0.00;0.00;0.62;0.00;0.00;0.62;2.83;1.97;;;22.20;26.10;;;;;;2257751;61;20500;-69
2024/02/06 01:12:36;0.00;0.00;0.62;0.00;0.00;0.62;4.47;2.10;;;22.20;26.10;;;;;;2258170;61;20838;-69
2024/02/06 01:15:20;0.00;0.00;0.62;0.00;0.00;0.62;2.93;2.10;;;22.20;26.10;;;;;;2260610;61;20385;-69
2024/02/06 01:18:06;0.00;0.00;0.62;0.00;0.00;0.62;2.90;2.30;;;22.20;26.10;;;;;;2260769;61;20467;-70
2024/02/06 01:20:51;0.00;0.00;0.62;0.00;0.00;0.62;3.93;2.43;;;22.20;26.10;;;;;;2261003;61;21124;-68
2024/02/06 01:23:38;0.00;0.00;0.62;0.00;0.00;0.62;2.90;1.90;;;22.20;26.10;;;;;;2263848;61;21081;-70
2024/02/06 01:26:23;0.00;0.00;0.62;0.00;0.00;0.62;3.63;2.50;;;22.20;26.10;;;;;;2265074;61;20406;-70
2024/02/06 01:29:07;0.00;0.00;0.62;0.00;0.00;0.62;3.30;2.27;;;22.20;26.10;;;;;;2262170;61;20372;-70
2024/02/06 01:31:52;0.00;0.00;0.62;0.00;0.00;0.62;2.87;2.00;;;22.20;26.10;;;;;;2539498;53;20391;-69
2024/02/06 01:34:40;0.00;0.00;0.62;0.00;0.00;0.62;3.37;2.43;;;22.20;26.10;;;;;;2265327;61;20415;-69
2024/02/06 01:37:25;0.00;0.00;0.62;0.00;0.00;0.62;3.97;2.20;;;22.20;26.10;;;;;;2263498;61;20389;-68
2024/02/06 01:40:10;0.00;0.00;0.62;0.00;0.00;0.62;3.87;2.27;;;22.20;26.10;;;;;;2261356;61;20364;-68
2024/02/06 01:42:55;0.00;0.00;0.62;0.00;0.00;0.62;3.20;2.27;;;22.20;26.10;;;;;;2261112;61;20384;-71
2024/02/06 01:45:40;0.00;0.00;0.62;0.00;0.00;0.62;3.90;2.50;;;22.20;26.10;;;;;;2260657;61;20886;-69
2024/02/06 01:48:29;0.00;0.00;0.62;0.00;0.00;0.62;3.23;2.50;;;22.20;26.10;;;;;;2257904;61;20850;-69
2024/02/06 01:51:18;0.00;0.00;0.62;0.00;0.00;0.62;7.00;2.80;;;22.20;26.10;;;;;;2261393;61;20431;-69
2024/02/06 01:54:03;0.00;0.00;0.62;0.00;0.00;0.62;3.57;2.63;;;22.20;26.10;;;;;;2497522;53;20384;-68
2024/02/06 01:56:49;0.00;0.00;0.62;0.00;0.00;0.62;3.53;2.47;;;22.20;26.10;;;;;;2261599;61;20429;-71
2024/02/06 01:59:36;0.00;0.00;0.62;0.00;0.00;0.62;3.77;2.67;;;22.20;26.10;;;;;;2257410;61;20901;-69
2024/02/06 02:02:21;0.00;0.00;0.62;0.00;0.00;0.62;4.13;2.63;;;22.20;26.10;;;;;;2260625;61;20389;-68
2024/02/06 02:05:24;0.00;0.00;0.62;0.00;0.00;0.62;3.40;2.70;;;22.20;26.10;;;;;;2612447;45;20403;-68
2024/02/06 02:08:11;0.00;0.00;0.62;0.00;0.00;0.62;4.13;2.40;;;22.20;26.10;;;;;;2265073;58;20379;-69
2024/02/06 02:10:57;0.00;0.00;0.62;0.00;0.00;0.62;3.53;2.57;;;22.20;26.10;;;;;;2262073;61;20407;-71
2024/02/06 02:13:42;0.00;0.00;0.62;0.00;0.00;0.62;6.00;2.90;;;22.20;26.10;;;;;;2264548;61;20802;-69
2024/02/06 02:16:27;0.00;0.00;0.62;0.00;0.00;0.62;3.30;2.60;;;22.20;26.10;;;;;;2422444;53;20919;-67
2024/02/06 02:19:12;0.00;0.00;0.62;0.00;0.00;0.62;5.23;2.57;;;22.20;26.10;;;;;;2257764;61;20401;-69
2024/02/06 02:21:58;0.00;0.00;0.62;0.00;0.00;0.62;3.50;2.30;;;22.20;26.10;;;;;;2260734;61;20436;-69
2024/02/06 02:24:43;0.00;0.00;0.62;0.00;0.00;0.62;3.33;2.63;;;22.20;26.10;;;;;;2257872;61;20492;-70
2024/02/06 02:27:28;0.00;0.00;0.62;0.00;0.00;0.62;3.53;2.73;;;22.20;26.10;;;;;;2257721;61;20380;-69
2024/02/06 02:30:14;0.00;0.00;0.62;0.00;0.00;0.62;4.17;2.57;;;22.20;26.10;;;;;;2257340;61;20488;-69
2024/02/06 02:32:59;0.00;0.00;0.62;0.00;0.00;0.62;3.60;2.70;;;22.20;26.10;;;;;;2255104;61;20439;-69
2024/02/06 02:35:45;0.00;0.00;0.62;0.00;0.00;0.62;3.47;2.33;;;22.20;26.10;;;;;;2261448;61;20411;-69
2024/02/06 02:38:32;0.00;0.00;0.62;0.00;0.00;0.62;3.93;2.43;;;22.20;26.10;;;;;;2533686;53;20832;-69
2024/02/06 02:41:16;0.00;0.00;0.62;0.00;0.00;0.62;3.30;2.20;;;22.20;26.10;;;;;;2261097;61;20392;-70
2024/02/06 02:44:06;0.00;0.00;0.62;0.00;0.00;0.62;4.10;2.70;;;22.20;26.10;;;;;;2261931;61;20371;-68
2024/02/06 02:46:50;0.00;0.00;0.62;0.00;0.00;0.62;3.20;2.17;;;22.20;26.10;;;;;;2265289;61;20360;-71
2024/02/06 02:49:34;0.00;0.00;0.62;0.00;0.00;0.62;3.83;2.67;;;22.20;26.10;;;;;;2265001;61;20351;-69
2024/02/06 02:52:19;0.00;0.00;0.62;0.00;0.00;0.62;4.10;2.77;;;22.20;26.10;;;;;;2261524;61;20851;-70
2024/02/06 02:55:06;0.00;0.00;0.62;0.00;0.00;0.62;4.00;2.47;;;22.20;26.10;;;;;;2260967;61;20399;-69
2024/02/06 02:57:50;0.00;0.00;0.62;0.00;0.00;0.62;4.37;2.70;;;22.20;26.10;;;;;;2260929;61;20434;-68
2024/02/06 03:00:35;0.00;0.00;0.62;0.00;0.00;0.62;3.40;2.63;;;22.20;26.10;;;;;;2649372;45;20449;-68
2024/02/06 03:03:20;0.00;0.00;0.62;0.00;0.00;0.62;2.40;1.80;;;22.20;26.10;;;;;;2261055;61;20908;-69
2024/02/06 03:06:05;0.00;0.00;0.62;0.00;0.00;0.62;4.80;2.03;;;22.20;26.10;;;;;;2261748;61;20364;-69
2024/02/06 03:08:50;0.00;0.00;0.62;0.00;0.00;0.62;3.50;2.80;;;22.20;26.10;;;;;;2265116;61;20411;-70
2024/02/06 03:11:36;0.00;0.00;0.62;0.00;0.00;0.62;2.70;1.77;;;22.20;26.10;;;;;;2264816;61;20379;-69
2024/02/06 03:14:20;0.00;0.00;0.62;0.00;0.00;0.62;3.50;2.30;;;22.20;26.10;;;;;;2261776;61;20426;-70
2024/02/06 03:17:05;0.00;0.00;0.62;0.00;0.00;0.62;4.10;2.20;;;22.20;26.10;;;;;;2260866;61;20361;-70
2024/02/06 03:19:49;0.00;0.00;0.62;0.00;0.00;0.62;3.47;2.20;;;22.20;26.10;;;;;;2261170;61;20340;-69
2024/02/06 03:22:34;0.00;0.00;0.62;0.00;0.00;0.62;5.00;2.30;;;22.20;26.10;;;;;;2260811;61;20922;-69
2024/02/06 03:25:19;0.00;0.00;0.62;0.00;0.00;0.62;3.00;2.53;;;22.20;26.10;;;;;;2265113;61;20914;-69
2024/02/06 03:28:06;0.00;0.00;0.62;0.00;0.00;0.62;2.73;2.37;;;22.20;26.10;;;;;;2263520;61;20365;-69
2024/02/06 03:30:51;0.00;0.00;0.62;0.00;0.00;0.62;2.93;2.43;;;22.20;26.10;;;;;;2260818;61;20871;-70
2024/02/06 03:33:35;0.00;0.00;0.62;0.00;0.00;0.62;3.47;2.60;;;22.20;26.10;;;;;;2260865;61;20407;-69
2024/02/06 03:36:20;0.00;0.00;0.62;0.00;0.00;0.62;3.47;2.33;;;22.20;26.10;;;;;;2263050;61;20375;-69
2024/02/06 03:39:05;0.00;0.00;0.62;0.00;0.00;0.62;4.00;2.47;;;22.10;26.00;;;;;;2264590;61;20820;-70
2024/02/06 03:41:49;0.00;0.00;0.62;0.00;0.00;0.62;3.17;2.30;;;22.10;26.10;;;;;;2264562;61;20794;-69
2024/02/06 03:44:35;0.00;0.00;0.62;0.00;0.00;0.62;3.17;2.13;;;22.10;26.10;;;;;;2259930;61;20391;-70
2024/02/06 03:47:20;0.00;0.00;0.62;0.00;0.00;0.62;3.73;2.77;;;22.10;26.10;;;;;;2260472;61;20381;-69
2024/02/06 03:50:05;0.00;0.00;0.62;0.00;0.00;0.62;2.47;1.90;;;22.10;26.10;;;;;;2256989;61;20365;-69
2024/02/06 03:52:51;0.00;0.00;0.62;0.00;0.00;0.62;2.90;2.10;;;22.10;26.10;;;;;;2257161;61;20438;-69
2024/02/06 03:55:36;0.00;0.00;0.62;0.00;0.00;0.62;2.37;1.73;;;22.10;26.10;;;;;;2260820;61;20695;-69
2024/02/06 03:58:20;0.00;0.00;0.62;0.00;0.00;0.62;3.37;2.00;;;22.10;26.10;;;;;;2262000;61;20392;-69
2024/02/06 04:01:06;0.00;0.00;0.62;0.00;0.00;0.62;2.67;1.90;;;22.10;26.10;;;;;;2264347;61;20797;-69
2024/02/06 04:03:50;0.00;0.00;0.62;0.00;0.00;0.62;3.27;2.20;;;22.10;26.10;;;;;;2264638;61;20882;-69
2024/02/06 04:06:35;0.00;0.00;0.62;0.00;0.00;0.62;3.70;2.00;;;22.10;26.10;;;;;;2260350;61;20880;-69
2024/02/06 04:09:20;0.00;0.00;0.62;0.00;0.00;0.62;2.90;2.00;;;22.10;26.10;;;;;;2260407;61;20341;-69
2024/02/06 04:12:05;0.00;0.00;0.62;0.00;0.00;0.62;3.20;1.87;;;22.10;26.10;;;;;;2256968;61;20384;-70
2024/02/06 04:14:50;0.00;0.00;0.62;0.00;0.00;0.62;2.30;1.90;;;22.10;26.10;;;;;;2264392;61;20384;-69
2024/02/06 04:17:36;0.00;0.00;0.62;0.00;0.00;0.62;3.37;2.17;;;22.10;26.10;;;;;;2264788;61;20355;-70
2024/02/06 04:20:21;0.00;0.00;0.62;0.00;0.00;0.62;3.13;1.60;;;22.10;26.10;;;;;;2264261;61;20380;-70
2024/02/06 04:23:06;0.00;0.00;0.62;0.00;0.00;0.62;3.23;1.83;;;22.10;26.10;;;;;;2264095;61;20348;-69
2024/02/06 04:25:51;0.00;0.00;0.62;0.00;0.00;0.62;4.33;2.13;;;22.10;26.10;;;;;;2264309;61;21029;-69
2024/02/06 04:28:35;0.00;0.00;0.62;0.00;0.00;0.62;3.43;2.00;;;22.10;26.10;;;;;;2260579;61;20357;-69
2024/02/06 04:31:20;0.00;0.00;0.62;0.00;0.00;0.62;3.30;1.90;;;22.10;26.10;;;;;;2260541;61;20385;-69
2024/02/06 04:34:06;0.00;0.00;0.62;0.00;0.00;0.62;4.10;2.67;;;22.10;26.10;;;;;;2260344;61;20515;-69
2024/02/06 04:36:51;0.00;0.00;0.62;0.00;0.00;0.62;3.13;1.90;;;22.10;26.10;;;;;;2492905;53;20345;-69
2024/02/06 04:39:36;0.00;0.00;0.62;0.00;0.00;0.62;3.73;2.17;;;22.10;26.10;;;;;;2260250;61;20427;-69
2024/02/06 04:42:20;0.00;0.00;0.62;0.00;0.00;0.62;3.77;2.00;;;22.10;26.10;;;;;;2261157;61;20387;-69
2024/02/06 04:45:06;0.00;0.00;0.62;0.00;0.00;0.62;2.20;1.63;;;22.10;26.10;;;;;;2264250;61;20421;-69
2024/02/06 04:47:50;0.00;0.00;0.62;0.00;0.00;0.62;2.13;1.87;;;22.10;26.10;;;;;;2264506;61;20367;-69
2024/02/06 04:50:36;0.00;0.00;0.62;0.00;0.00;0.62;2.33;1.90;;;22.10;26.10;;;;;;2261501;61;20367;-70
2024/02/06 04:53:21;0.00;0.00;0.62;0.00;0.00;0.62;3.03;1.97;;;22.10;26.10;;;;;;2261066;61;20379;-69
2024/02/06 04:56:07;0.00;0.00;0.62;0.00;0.00;0.62;2.57;2.10;;;22.10;26.10;;;;;;2257858;61;20781;-68
2024/02/06 04:58:51;0.00;0.00;0.62;0.00;0.00;0.62;2.57;1.97;;;22.10;26.10;;;;;;2710124;45;20812;-68
2024/02/06 05:01:36;0.00;0.00;0.62;0.00;0.00;0.62;2.27;1.77;;;22.10;26.20;;;;;;2261094;61;20871;-69
2024/02/06 05:04:20;0.00;0.00;0.62;0.00;0.00;0.62;2.40;1.90;;;22.10;26.20;;;;;;2261273;61;20839;-69
2024/02/06 05:07:06;0.00;0.00;0.62;0.00;0.00;0.62;2.20;1.90;;;22.10;26.20;;;;;;2265019;61;20360;-69
2024/02/06 05:09:51;0.00;0.00;0.62;0.00;0.00;0.62;2.80;1.90;;;22.10;26.20;;;;;;2265174;61;20360;-69
2024/02/06 05:12:36;0.00;0.00;0.62;0.00;0.00;0.62;2.97;1.60;;;22.10;26.10;;;;;;2262005;61;20388;-69
2024/02/06 05:15:20;0.00;0.00;0.62;0.00;0.00;0.62;1.80;1.40;;;22.10;26.10;;;;;;2260908;61;20825;-69
2024/02/06 05:18:05;0.00;0.00;0.62;0.00;0.00;0.62;4.40;2.87;;;22.10;26.10;;;;;;2257868;61;20948;-69
2024/02/06 05:20:50;0.00;0.00;0.62;0.00;0.00;0.62;2.27;1.80;;;22.10;26.20;;;;;;2264185;61;20418;-69
2024/02/06 05:23:36;0.00;0.00;0.62;0.00;0.00;0.62;3.67;1.80;;;22.10;26.20;;;;;;2265045;61;20345;-69
2024/02/06 05:26:21;0.00;0.00;0.62;0.00;0.00;0.62;2.67;2.13;;;22.10;26.20;;;;;;2270850;55;20407;-62
2024/02/06 05:29:06;0.00;0.00;0.62;0.00;0.00;0.62;3.10;2.10;;;22.10;26.20;;;;;;2264044;61;20405;-63
2024/02/06 05:31:51;0.00;0.00;0.62;0.00;0.00;0.62;3.07;2.23;;;22.10;26.20;;;;;;2264164;61;20376;-63
2024/02/06 05:34:35;0.00;0.00;0.62;0.00;0.00;0.62;2.53;2.10;;;22.10;26.20;;;;;;2263239;61;20433;-62
2024/02/06 05:37:20;0.00;0.00;0.62;0.00;0.00;0.62;2.67;2.03;;;22.10;26.20;;;;;;2264022;61;20364;-63
2024/02/06 05:40:12;0.00;0.00;0.62;0.00;0.00;0.62;3.23;2.87;;;22.10;26.20;;;;;;2263759;61;20452;-62
2024/02/06 05:42:56;0.00;0.00;0.62;0.00;0.00;0.62;3.93;2.20;;;22.10;26.20;;;;;;2263570;61;20391;-60
2024/02/06 05:45:41;0.00;0.00;0.62;0.00;0.00;0.62;4.33;3.00;;;22.10;26.20;;;;;;2264093;61;20918;-63
2024/02/06 05:48:25;0.00;0.00;0.62;0.00;0.00;0.62;3.83;2.40;;;22.10;26.20;;;;;;2263483;61;20364;-62
2024/02/06 05:51:10;0.00;0.00;0.62;0.00;0.00;0.62;2.60;2.00;;;22.10;26.20;;;;;;2263909;61;20363;-61
2024/02/06 05:53:54;0.00;0.00;0.62;0.00;0.00;0.62;3.23;2.50;;;22.10;26.20;;;;;;2264032;61;20929;-63
2024/02/06 05:56:40;0.00;0.00;0.62;0.00;0.00;0.62;4.30;2.97;;;22.10;26.20;;;;;;2263640;61;20447;-62
2024/02/06 05:59:27;0.00;0.00;0.62;0.00;0.00;0.62;4.87;3.43;;;22.10;26.20;;;;;;2263861;61;20407;-62
2024/02/06 06:02:12;0.00;0.00;0.62;0.00;0.00;0.62;4.30;3.03;;;22.10;26.20;;;;;;2263838;61;20364;-63
2024/02/06 06:04:57;0.00;0.00;0.62;0.00;0.00;0.62;4.70;3.50;;;22.10;26.20;;;;;;2263438;61;20388;-62
2024/02/06 06:07:41;0.00;0.00;0.62;0.00;0.00;0.62;3.70;3.10;;;22.10;26.20;;;;;;2264150;61;20771;-63
2024/02/06 06:10:26;0.00;0.00;0.62;0.00;0.00;0.62;4.30;3.23;;;22.10;26.20;;;;;;2263574;61;20907;-61
2024/02/06 06:13:12;0.00;0.00;0.62;0.00;0.00;0.62;4.00;3.37;;;22.10;26.20;;;;;;2263837;61;20360;-62
2024/02/06 06:15:57;0.00;0.00;0.62;0.00;0.00;0.62;4.60;3.37;;;22.10;26.20;;;;;;2264167;61;20518;-62
2024/02/06 06:18:41;0.00;0.00;0.62;0.00;0.00;0.62;6.93;4.10;;;22.10;26.20;;;;;;2263107;61;21014;-63
2024/02/06 06:21:27;0.00;0.00;0.62;0.00;0.00;0.62;5.57;3.67;;;22.00;26.20;;;;;;2263854;61;20352;-62
2024/02/06 06:24:12;0.00;0.00;0.62;0.00;0.00;0.62;5.17;3.67;;;22.10;26.20;;;;;;2263751;61;20940;-62
2024/02/06 06:26:58;0.00;0.00;0.62;0.00;0.00;0.62;5.97;4.10;;;22.10;26.20;;;;;;2264236;61;20918;-62
2024/02/06 06:29:47;0.00;0.00;0.62;0.00;0.00;0.62;6.43;4.37;;;22.00;26.20;;;;;;2264968;61;20410;-62
2024/02/06 06:32:32;0.00;0.00;0.62;0.00;0.00;0.62;5.90;4.60;;;22.00;26.20;;;;;;2264090;61;20368;-61
2024/02/06 06:35:17;0.00;0.00;0.62;0.00;0.00;0.62;5.47;3.97;;;22.00;26.20;;;;;;2636173;45;20422;-63
2024/02/06 06:38:02;0.00;0.00;0.62;0.00;0.00;0.62;9.33;5.17;;;22.00;26.20;;;;;;2263973;61;20470;-63
2024/02/06 06:40:46;0.00;0.00;0.62;0.00;0.00;0.62;6.83;4.80;;;22.00;26.20;;;;;;2263415;61;20474;-63
2024/02/06 06:43:30;0.00;0.00;0.62;0.00;0.00;0.62;7.53;4.87;;;22.00;26.20;;;;;;2263598;61;20457;-63
2024/02/06 06:46:16;0.00;0.00;0.62;0.00;0.00;0.62;6.13;4.70;;;22.00;26.20;;;;;;2263642;61;20460;-63
2024/02/06 06:49:01;0.00;0.00;0.62;0.00;0.00;0.62;6.70;5.10;;;22.10;26.30;;;;;;2263311;61;20356;-63
2024/02/06 06:51:46;0.00;0.00;0.62;0.00;0.00;0.62;7.77;5.40;;;22.00;26.20;;;;;;2263936;61;20363;-63
2024/02/06 06:54:31;0.00;0.00;0.62;0.00;0.00;0.62;6.27;5.43;;;22.00;26.20;;;;;;2263628;61;20450;-63
2024/02/06 06:57:15;0.00;0.00;0.62;0.00;0.00;0.62;10.17;6.30;;;22.10;26.30;;;;;;2503344;53;20816;-63
2024/02/06 06:59:59;0.00;0.00;0.62;0.00;0.00;0.62;7.60;5.80;;;22.00;26.20;;;;;;2259884;61;20373;-62
2024/02/06 07:02:45;0.00;0.00;0.62;0.00;0.00;0.62;7.57;5.90;;;22.00;26.20;;;;;;2260149;61;20462;-63
2024/02/06 07:05:32;0.00;0.00;0.62;0.00;0.00;0.62;7.23;6.20;;;22.00;26.20;;;;;;2263550;61;20426;-63
2024/02/06 07:08:17;0.00;0.00;0.62;0.00;0.00;0.62;7.27;6.23;;;22.00;26.20;;;;;;2263881;61;20878;-64
2024/02/06 07:11:02;0.00;0.00;0.62;0.00;0.00;0.62;8.17;7.33;;;22.00;26.20;;;;;;2263554;61;20372;-62
2024/02/06 07:13:47;0.00;0.00;0.62;0.00;0.00;0.62;8.13;7.20;;;22.00;26.20;;;;;;2263558;61;20364;-63
2024/02/06 07:16:31;0.00;0.00;0.62;0.00;0.00;0.62;8.27;7.43;;;22.00;26.20;;;;;;2263751;61;20434;-63
2024/02/06 07:19:17;0.00;0.00;0.62;0.00;0.00;0.62;11.67;8.23;;;22.00;26.20;;;;;;2262962;61;20383;-62
2024/02/06 07:22:02;0.00;0.00;0.62;0.00;0.00;0.62;12.50;8.33;;;22.00;26.30;;;;;;2264068;61;20449;-63
2024/02/06 07:24:46;0.00;0.00;0.62;0.00;0.00;0.62;10.20;9.10;;;22.00;26.30;;;;;;2263351;61;20430;-62
2024/02/06 07:27:32;0.00;0.00;0.62;0.00;0.00;0.62;10.43;8.20;;;22.00;26.30;;;;;;2263676;61;20369;-63
2024/02/06 07:30:17;0.00;0.00;0.62;0.00;0.00;0.62;10.93;8.53;;;22.00;26.30;;;;;;2263752;61;20402;-63
2024/02/06 07:33:02;0.00;0.00;0.62;0.00;0.00;0.62;10.13;8.30;;;22.00;26.30;;;;;;2263463;61;20376;-62
2024/02/06 07:35:48;0.00;0.00;0.62;0.00;0.00;0.62;11.33;9.50;;;22.00;26.30;;;;;;2263896;61;20422;-63
2024/02/06 07:38:32;0.00;0.00;0.62;0.00;0.00;0.62;12.30;10.20;;;22.00;26.30;;;;;;2263559;61;20380;-63
2024/02/06 07:41:17;0.00;0.00;0.62;0.00;0.00;0.62;12.07;8.90;;;22.00;26.30;;;;;;2263438;61;20922;-63
2024/02/06 07:44:03;0.00;0.00;0.62;0.00;0.00;0.62;13.07;9.20;;;22.00;26.30;;;;;;2263954;61;20379;-62
2024/02/06 07:46:48;0.00;0.00;0.62;0.00;0.00;0.62;11.80;9.83;;;22.00;26.30;;;;;;2263335;61;20387;-63
2024/02/06 07:49:33;0.00;0.00;0.62;0.00;0.00;0.62;14.27;9.73;;;22.00;26.30;;;;;;2263640;61;20758;-62
2024/02/06 07:52:19;0.00;0.00;0.62;0.00;0.00;0.62;10.97;9.60;;;22.00;26.30;;;;;;2263871;61;20395;-62
2024/02/06 07:55:04;0.00;0.00;0.62;0.00;0.00;0.62;11.03;9.50;;;22.00;26.30;;;;;;2263533;61;20818;-63
2024/02/06 07:57:49;0.00;0.00;0.62;0.00;0.00;0.62;12.83;10.70;;;22.00;26.30;;;;;;2263459;61;20367;-63
2024/02/06 08:00:35;0.00;0.00;0.62;0.00;0.00;0.62;11.90;10.63;;;22.00;26.30;;;;;;2263604;61;20368;-63
2024/02/06 08:03:19;0.00;0.00;0.62;0.00;0.00;0.62;12.80;10.83;;;22.00;26.40;;;;;;2263099;61;20364;-63
2024/02/06 08:06:05;0.00;0.00;0.62;0.00;0.00;0.62;12.07;10.17;;;22.00;26.40;;;;;;2263877;61;20383;-63
2024/02/06 08:08:51;0.00;0.00;0.62;0.00;0.00;0.62;12.60;10.27;;;22.00;26.30;;;;;;2263263;61;20360;-61
2024/02/06 08:11:36;0.00;0.00;0.62;0.00;0.00;0.62;11.50;9.20;;;22.00;26.30;;;;;;2263349;61;20417;-63
2024/02/06 08:14:20;0.00;0.00;0.62;0.00;0.00;0.62;11.30;10.10;;;22.00;26.30;;;;;;2263627;61;20410;-63
2024/02/06 08:17:05;0.00;0.00;0.62;0.00;0.00;0.62;10.20;9.10;;;22.00;26.30;;;;;;2263455;61;20367;-63
2024/02/06 08:19:49;0.00;0.00;0.62;0.00;0.00;0.62;10.37;8.83;;;22.00;26.40;;;;;;2263286;61;20484;-64
2024/02/06 08:22:33;0.00;0.00;0.62;0.00;0.00;0.62;10.43;8.70;;;22.00;26.40;;;;;;2263509;61;20773;-63
2024/02/06 08:25:21;0.00;0.00;0.62;0.00;0.00;0.62;11.13;8.73;;;22.00;26.40;;;;;;2263665;61;20399;-62
2024/02/06 08:28:06;0.00;0.00;0.62;0.00;0.00;0.62;9.93;8.27;;;22.10;26.40;;;;;;2264554;61;20360;-63
2024/02/06 08:30:51;0.00;0.00;0.62;0.00;0.00;0.62;8.53;7.63;;;22.00;26.40;;;;;;2263982;61;20391;-62
2024/02/06 08:33:36;0.00;0.00;0.62;0.00;0.00;0.62;9.70;7.60;;;22.00;26.40;;;;;;2683314;45;20779;-62
2024/02/06 08:36:21;0.00;0.00;0.62;0.00;0.00;0.62;9.93;7.33;;;22.00;26.40;;;;;;2260439;61;20400;-62
2024/02/06 08:39:06;0.00;0.00;0.62;0.00;0.00;0.62;8.03;6.50;;;22.00;26.40;;;;;;2260970;61;20379;-63
2024/02/06 08:41:52;0.00;0.00;0.62;0.00;0.00;0.62;8.30;6.70;;;22.00;26.40;;;;;;2264228;61;20359;-62
2024/02/06 08:44:37;0.00;0.00;0.62;0.00;0.00;0.62;7.60;6.20;;;22.10;26.50;;;;;;2264154;61;20778;-62
2024/02/06 08:47:21;0.00;0.00;0.62;0.00;0.00;0.62;8.73;6.90;;;22.00;26.40;;;;;;2263822;61;20397;-62
2024/02/06 08:50:07;0.00;0.00;0.62;0.00;0.00;0.62;7.33;6.07;;;22.00;26.40;;;;;;2264433;61;20503;-63
2024/02/06 08:52:52;0.00;0.00;0.62;0.00;0.00;0.62;6.67;5.93;;;22.00;26.40;;;;;;2263932;61;20410;-62
2024/02/06 08:55:36;0.00;0.00;0.62;0.00;0.00;0.62;6.63;5.37;;;22.00;26.40;;;;;;2263949;61;20469;-63
2024/02/06 08:58:22;0.00;0.00;0.62;0.00;0.00;0.62;8.03;6.37;;;22.00;26.40;;;;;;2264318;61;20461;-63
2024/02/06 09:01:07;0.00;0.00;0.62;0.00;0.00;0.62;8.30;6.30;;;22.10;26.50;;;;;;2263828;61;20891;-63
2024/02/06 09:03:51;0.00;0.00;0.62;0.00;0.00;0.62;5.93;5.30;;;22.00;26.40;;;;;;2263790;61;20364;-62
2024/02/06 09:06:36;0.00;0.00;0.62;0.00;0.00;0.62;6.80;5.03;;;22.00;26.40;;;;;;2264309;61;20950;-63
2024/02/06 09:09:22;0.00;0.00;0.62;0.00;0.00;0.62;5.77;5.17;;;22.10;26.40;;;;;;2263913;61;20368;-63
2024/02/06 09:12:08;0.00;0.00;0.62;0.00;0.00;0.62;5.80;4.83;;;22.00;26.40;;;;;;2264531;61;20368;-63
2024/02/06 09:14:56;0.00;0.00;0.62;0.00;0.00;0.62;6.53;5.30;;;22.00;26.40;;;;;;2263747;61;20980;-63
2024/02/06 09:17:41;0.00;0.00;0.62;0.00;0.00;0.62;4.77;4.27;;;22.00;26.40;;;;;;2263849;61;20792;-63
2024/02/06 09:20:26;0.00;0.00;0.62;0.00;0.00;0.62;5.50;4.90;;;22.00;26.40;;;;;;2264147;61;20891;-63
2024/02/06 09:23:13;0.00;0.00;0.62;0.00;0.00;0.62;6.70;5.17;;;22.10;26.50;;;;;;2263470;61;20903;-63
2024/02/06 09:25:58;0.00;0.00;0.62;0.00;0.00;0.62;5.73;5.00;;;22.00;26.40;;;;;;2263854;61;20398;-63
2024/02/06 09:28:43;0.00;0.00;0.62;0.00;0.00;0.62;6.07;4.80;;;22.00;26.40;;;;;;2264277;61;20807;-63
2024/02/06 09:31:29;0.00;0.00;0.62;0.00;0.00;0.62;4.63;3.83;;;22.00;26.40;;;;;;2263742;61;20940;-61
2024/02/06 09:34:14;0.00;0.00;0.62;0.00;0.00;0.62;6.70;4.73;;;22.00;26.40;;;;;;2264045;61;20502;-62
2024/02/06 09:36:59;0.00;0.00;0.62;0.00;0.00;0.62;7.10;5.40;;;22.00;26.40;;;;;;2264022;61;20933;-62
2024/02/06 09:39:43;0.00;0.00;0.62;0.00;0.00;0.62;4.13;3.73;;;22.10;26.50;;;;;;2263713;61;20933;-63
2024/02/06 09:42:29;0.00;0.00;0.62;0.00;0.00;0.62;5.30;4.27;;;22.00;26.40;;;;;;2264054;61;20387;-63
2024/02/06 09:45:15;0.00;0.00;0.62;0.00;0.00;0.62;5.90;4.43;;;22.10;26.50;;;;;;2263588;61;20442;-61
2024/02/06 09:48:01;0.00;0.00;0.62;0.00;0.00;0.62;4.70;3.97;;;22.00;26.40;;;;;;2263942;61;20394;-63
2024/02/06 09:50:45;0.00;0.00;0.62;0.00;0.00;0.62;4.73;3.90;;;22.00;26.50;;;;;;2264170;61;20763;-63
2024/02/06 09:53:32;0.00;0.00;0.62;0.00;0.00;0.62;6.17;4.17;;;22.00;26.50;;;;;;2263423;61;20371;-63
2024/02/06 09:56:17;0.00;0.00;0.62;0.00;0.00;0.62;4.07;3.67;;;22.00;26.40;;;;;;2263883;61;20467;-62
2024/02/06 09:59:05;0.00;0.00;0.62;0.00;0.00;0.62;5.20;3.63;;;22.10;26.50;;;;;;2264092;61;20396;-63
2024/02/06 10:01:51;0.00;0.00;0.62;0.00;0.00;0.62;4.37;3.80;;;22.10;26.50;;;;;;2263671;61;20364;-63
2024/02/06 10:04:37;0.00;0.00;0.62;0.00;0.00;0.62;4.53;3.90;;;22.00;26.40;;;;;;2263779;61;20402;-63
2024/02/06 10:07:22;0.00;0.00;0.62;0.00;0.00;0.62;5.07;3.80;;;22.10;26.50;;;;;;2263614;61;20390;-64
2024/02/06 10:10:09;0.00;0.00;0.62;0.00;0.00;0.62;3.53;3.10;;;22.10;26.50;;;;;;2263861;61;20363;-63
2024/02/06 10:12:53;0.00;0.00;0.62;0.00;0.00;0.62;5.17;3.70;;;22.00;26.50;;;;;;2263869;61;20367;-62
2024/02/06 10:15:38;0.00;0.00;0.62;0.00;0.00;0.62;5.80;4.10;;;22.10;26.50;;;;;;2263548;61;20433;-62
2024/02/06 10:18:23;0.00;0.00;0.62;0.00;0.00;0.62;4.80;3.23;;;22.10;26.50;;;;;;2263937;61;20412;-64
2024/02/06 10:21:09;0.00;0.00;0.62;0.00;0.00;0.62;4.40;3.67;;;22.10;27.10;;;;;;2263870;61;20414;-62
2024/02/06 10:24:00;0.00;0.00;0.62;0.00;0.00;0.62;3.67;2.97;;;22.10;26.50;;;;;;2263542;61;20408;-63
2024/02/06 10:26:45;0.00;0.00;0.62;0.00;0.00;0.62;5.03;3.27;;;22.10;26.50;;;;;;2264306;61;20395;-62
2024/02/06 10:29:32;0.00;0.00;0.62;0.00;0.00;0.62;4.73;3.57;;;22.10;26.50;;;;;;2263505;61;20464;-62
2024/02/06 10:32:16;0.00;0.00;0.62;0.00;0.00;0.62;3.83;2.90;;;22.00;27.00;;;;;;2263991;61;20364;-63
2024/02/06 10:35:02;0.00;0.00;0.62;0.00;0.00;0.62;3.47;3.17;;;22.10;26.50;;;;;;2263922;61;20392;-61
2024/02/06 10:37:48;0.00;0.00;0.62;0.00;0.00;0.62;4.63;3.13;;;22.10;26.50;;;;;;2263612;61;20378;-63
2024/02/06 10:40:33;0.00;0.00;0.62;0.00;0.00;0.62;4.17;3.27;;;22.10;26.50;;;;;;2263924;61;20391;-63
2024/02/06 10:43:17;0.00;0.00;0.62;0.00;0.00;0.62;4.50;3.33;;;22.10;26.50;;;;;;2263602;61;20404;-63
2024/02/06 10:46:04;0.00;0.00;0.62;0.00;0.00;0.62;3.87;2.60;;;22.10;26.50;;;;;;2263492;61;20794;-63
2024/02/06 10:48:50;0.00;0.00;0.62;0.00;0.00;0.62;3.90;2.77;;;22.10;26.50;;;;;;2263904;61;20355;-63
2024/02/06 10:51:35;0.00;0.00;0.62;0.00;0.00;0.62;3.40;3.00;;;22.10;26.50;;;;;;2263673;61;20387;-63